Terminal Aerodrome Forecast
Issued by NWS Wilmington, OH

Current Version | Previous Version | Graphics & Text | Print | Product List | Glossary On
Versions: 1 2 3 4 5 6 7 8 9 10 11 12 13 14 15 16 17 18 19 20 21 22
000
FTUS41 KILN 162300
TAFDAY
TAF
KDAY 162320Z 1700/1724 22006KT P6SM VCSH OVC035
      TEMPO 1700/1702 5SM -SHRA OVC025
     FM170200 26005KT 6SM BR OVC025
     FM170400 27006KT 4SM BR OVC007
     FM171200 33006KT P6SM BKN025
     FM171400 35007KT P6SM SKC=

USA.gov is the U.S. government's official web portal to all federal, state and local government web resources and services.